createdAt,value
2019-01-05T00:02:18.291Z,102056.48
2019-01-05T00:04:52.218Z,102041.25
2019-01-05T00:07:39.957Z,102044.03
2019-01-05T00:10:27.510Z,102033.34
2019-01-05T00:13:07.305Z,102033.19
2019-01-05T00:15:56.878Z,102041.76
2019-01-05T00:18:46.481Z,102039.55
2019-01-05T00:21:33.620Z,102028.32
2019-01-05T00:24:10.445Z,102038.59
2019-01-05T00:26:41.748Z,102038.73
2019-01-05T00:29:28.195Z,102015.20
2019-01-05T00:32:22.614Z,102030.53
2019-01-05T00:34:53.829Z,102025.74
2019-01-05T00:37:27.700Z,102020.74
2019-01-05T00:40:17.106Z,102002.23
2019-01-05T00:42:54.515Z,102005.75
2019-01-05T00:45:25.729Z,102003.09
2019-01-05T00:47:59.640Z,101998.30
2019-01-05T00:50:46.876Z,101986.55
2019-01-05T00:53:34.085Z,101982.81
2019-01-05T00:56:21.315Z,101989.44
2019-01-05T00:59:08.639Z,101988.50
2019-01-05T01:01:45.472Z,101996.41
2019-01-05T01:04:34.714Z,101986.82
2019-01-05T01:07:22.073Z,101986.05
2019-01-05T01:09:53.279Z,101978.70
2019-01-05T01:12:30.534Z,101976.55
2019-01-05T01:15:10.652Z,101972.13
2019-01-05T01:17:58.561Z,101971.55
2019-01-05T01:20:45.848Z,101982.00
2019-01-05T01:23:35.158Z,101988.34
2019-01-05T01:26:22.576Z,101992.89
2019-01-05T01:28:53.760Z,101973.30
2019-01-05T01:31:25.036Z,101970.32
2019-01-05T01:34:12.458Z,101972.36
2019-01-05T01:36:43.691Z,101969.16
2019-01-05T01:39:34.065Z,101970.77
2019-01-05T01:42:14.752Z,101971.67
2019-01-05T01:44:58.160Z,101964.42
2019-01-05T01:47:46.319Z,101975.73
2019-01-05T01:50:33.716Z,101970.77
2019-01-05T01:53:08.736Z,101961.27
2019-01-05T01:55:40.000Z,101946.40
2019-01-05T01:58:11.143Z,101946.94
2019-01-05T02:00:48.327Z,101929.41
2019-01-05T02:03:19.620Z,101932.60
2019-01-05T02:05:56.573Z,101930.09
2019-01-05T02:08:44.277Z,101946.45
2019-01-05T02:11:21.710Z,101934.36
2019-01-05T02:14:05.147Z,101942.92
2019-01-05T02:16:54.639Z,101935.77
2019-01-05T02:19:36.373Z,101936.66
2019-01-05T02:22:27.151Z,101932.06
2019-01-05T02:25:28.404Z,101938.01
2019-01-05T02:28:20.615Z,101931.30
2019-01-05T02:31:00.958Z,101933.47
2019-01-05T02:33:53.292Z,101941.25
2019-01-05T02:36:55.998Z,101940.84
2019-01-05T02:39:46.990Z,101932.11
2019-01-05T02:42:43.274Z,101933.19
2019-01-05T02:45:52.166Z,101930.44
2019-01-05T02:48:50.431Z,101918.27
2019-01-05T02:52:05.477Z,101918.19
2019-01-05T02:54:51.660Z,101919.09
2019-01-05T02:57:48.117Z,101921.79
2019-01-05T03:00:42.828Z,101921.30
2019-01-05T03:03:47.460Z,101888.41
2019-01-05T03:06:40.829Z,101913.81
2019-01-05T03:09:35.862Z,101910.08
2019-01-05T03:12:31.041Z,101915.57
2019-01-05T03:15:13.903Z,101907.64
2019-01-05T03:18:06.668Z,101908.54
2019-01-05T03:21:12.930Z,101904.76
2019-01-05T03:24:06.406Z,101898.95
2019-01-05T03:27:04.994Z,101913.27
2019-01-05T03:30:00.252Z,101912.46
2019-01-05T03:33:07.639Z,101901.37
2019-01-05T03:36:13.831Z,101897.46
2019-01-05T03:39:09.247Z,101882.32
2019-01-05T03:42:21.466Z,101893.45
2019-01-05T03:45:42.957Z,101885.97
2019-01-05T03:49:07.137Z,101886.42
2019-01-05T03:52:03.960Z,101888.27
2019-01-05T03:55:07.272Z,101889.62
2019-01-05T03:58:20.787Z,101886.02
2019-01-05T04:01:29.854Z,101893.40
2019-01-05T04:04:30.904Z,101888.72
2019-01-05T04:07:34.049Z,101892.32
2019-01-05T04:10:14.550Z,101888.67
2019-01-05T04:13:22.403Z,101885.02
2019-01-05T04:16:08.267Z,101878.94
2019-01-05T04:19:17.261Z,101889.76
2019-01-05T04:22:15.000Z,101881.16
2019-01-05T04:25:08.746Z,101869.08
2019-01-05T04:28:24.904Z,101878.45
2019-01-05T04:31:31.349Z,101878.53
2019-01-05T04:34:34.433Z,101876.10
2019-01-05T04:37:50.070Z,101879.80
2019-01-05T04:40:48.404Z,101880.70
2019-01-05T04:43:40.713Z,101869.12
2019-01-05T04:46:38.830Z,101859.11
2019-01-05T04:49:38.571Z,101871.38
2019-01-05T04:52:54.596Z,101876.09
2019-01-05T04:55:46.332Z,101887.59
2019-01-05T04:58:42.789Z,101876.86
2019-01-05T05:01:39.420Z,101868.44
2019-01-05T05:04:42.373Z,101862.12
2019-01-05T05:07:45.446Z,101865.73
2019-01-05T05:10:31.747Z,101881.64
2019-01-05T05:13:46.561Z,101881.51
2019-01-05T05:16:40.552Z,101882.18
2019-01-05T05:19:26.832Z,101879.07
2019-01-05T05:22:20.721Z,101880.56
2019-01-05T05:25:00.738Z,101884.19
2019-01-05T05:27:51.519Z,101892.78
2019-01-05T05:31:16.767Z,101895.03
2019-01-05T05:34:02.760Z,101893.33
2019-01-05T05:36:56.759Z,101897.33
2019-01-05T05:39:56.589Z,101901.20
2019-01-05T05:42:48.920Z,101907.73
2019-01-05T05:45:49.141Z,101911.94
2019-01-05T05:48:51.811Z,101912.56
2019-01-05T05:51:43.673Z,101915.36
2019-01-05T05:54:40.704Z,101921.17
2019-01-05T05:57:47.145Z,101919.73
2019-01-05T06:00:42.384Z,101923.29
2019-01-05T06:04:07.839Z,101923.52
2019-01-05T06:07:07.695Z,101924.81
2019-01-05T06:10:05.891Z,101931.22
2019-01-05T06:13:04.602Z,101937.22
2019-01-05T06:16:11.939Z,101933.97
2019-01-05T06:19:08.705Z,101928.97
2019-01-05T06:21:55.036Z,101924.91
2019-01-05T06:24:51.826Z,101934.14
2019-01-05T06:28:03.841Z,101933.33
2019-01-05T06:31:22.386Z,101929.28
2019-01-05T06:33:59.832Z,101936.98
2019-01-05T06:36:53.640Z,101941.55
2019-01-05T06:39:39.693Z,101949.11
2019-01-05T06:42:41.150Z,101959.66
2019-01-05T06:45:40.778Z,101974.99
2019-01-05T06:48:42.266Z,101970.84
2019-01-05T06:51:41.985Z,101966.60
2019-01-05T06:54:41.984Z,101963.90
2019-01-05T06:57:41.466Z,101966.96
2019-01-05T07:00:47.393Z,101968.36
2019-01-05T07:03:27.563Z,101976.71
2019-01-05T07:06:30.542Z,101982.83
2019-01-05T07:09:36.906Z,101987.16
2019-01-05T07:12:36.985Z,101991.77
2019-01-05T07:15:40.966Z,101998.88
2019-01-05T07:18:21.113Z,101995.69
2019-01-05T07:21:28.094Z,102000.42
2019-01-05T07:24:54.105Z,102007.13
2019-01-05T07:27:51.445Z,101996.05
2019-01-05T07:31:15.726Z,102009.89
2019-01-05T07:34:26.239Z,102015.84
2019-01-05T07:37:44.682Z,102022.20
2019-01-05T07:40:41.720Z,102036.09
2019-01-05T07:43:32.042Z,102034.05
2019-01-05T07:46:44.127Z,102042.48
2019-01-05T07:50:07.235Z,102047.86
2019-01-05T07:53:32.855Z,102039.46
2019-01-05T07:56:16.397Z,102044.87
2019-01-05T07:59:14.595Z,102045.81
2019-01-05T08:01:51.598Z,102046.58
2019-01-05T08:08:28.223Z,102066.92
2019-01-05T08:11:24.021Z,102084.81
2019-01-05T08:14:04.038Z,102081.98
2019-01-05T08:17:03.837Z,102081.52
2019-01-05T08:20:06.737Z,102078.99
2019-01-05T08:23:16.866Z,102082.52
2019-01-05T08:26:08.831Z,102084.89
2019-01-05T08:28:49.239Z,102090.40
2019-01-05T08:31:38.343Z,102090.52
2019-01-05T08:34:30.556Z,102084.22
2019-01-05T08:37:54.829Z,102098.34
2019-01-05T08:41:02.756Z,102102.61
2019-01-05T08:44:05.725Z,102111.95
2019-01-05T08:47:14.186Z,102107.08
2019-01-05T08:50:24.695Z,102106.14
2019-01-05T08:53:10.867Z,102113.22
2019-01-05T08:55:56.947Z,102112.90
2019-01-05T08:58:51.108Z,102122.32
2019-01-05T09:02:10.023Z,102118.31
2019-01-05T09:05:03.818Z,102118.63
2019-01-05T09:08:15.737Z,102122.23
2019-01-05T09:11:30.682Z,102125.39
2019-01-05T09:14:13.930Z,102126.82
2019-01-05T09:17:33.927Z,102125.07
2019-01-05T09:20:32.583Z,102127.28
2019-01-05T09:23:29.284Z,102119.98
2019-01-05T09:26:15.798Z,102122.77
2019-01-05T09:29:32.656Z,102114.98
2019-01-05T09:32:39.777Z,102114.98
2019-01-05T09:35:46.777Z,102110.05
2019-01-05T09:38:42.743Z,102122.51
2019-01-05T09:41:39.657Z,102141.24
2019-01-05T09:44:57.827Z,102135.58
2019-01-05T09:48:13.130Z,102146.40
2019-01-05T09:51:16.712Z,102153.03
2019-01-05T09:54:16.918Z,102154.67
2019-01-05T09:57:27.689Z,102157.33
2019-01-05T10:00:47.473Z,102149.08
2019-01-05T10:04:07.383Z,102142.55
2019-01-05T10:07:16.105Z,102139.50
2019-01-05T10:10:39.099Z,102153.39
2019-01-05T10:13:36.033Z,102148.26
2019-01-05T10:16:31.544Z,102149.39
2019-01-05T10:19:28.256Z,102144.47
2019-01-05T10:22:54.249Z,102141.95
2019-01-05T10:25:52.009Z,102135.05
2019-01-05T10:28:43.895Z,102145.95
2019-01-05T10:31:43.599Z,102146.62
2019-01-05T10:34:27.014Z,102136.25
2019-01-05T10:37:22.643Z,102138.24
2019-01-05T10:40:29.151Z,102133.97
2019-01-05T10:43:32.067Z,102129.72
2019-01-05T10:46:24.183Z,102131.80
2019-01-05T10:49:33.111Z,102129.91
2019-01-05T10:52:10.993Z,102130.86
2019-01-05T10:55:40.757Z,102133.47
2019-01-05T10:58:44.271Z,102136.50
2019-01-05T11:01:57.149Z,102146.38
2019-01-05T11:05:14.383Z,102149.58
2019-01-05T11:08:12.942Z,102150.70
2019-01-05T11:11:18.958Z,102152.53
2019-01-05T11:14:21.956Z,102159.36
2019-01-05T11:17:44.530Z,102164.52
2019-01-05T11:20:36.944Z,102159.98
2019-01-05T11:23:38.018Z,102152.34
2019-01-05T11:26:27.641Z,102146.92
2019-01-05T11:29:27.834Z,102157.77
2019-01-05T11:32:47.526Z,102148.55
2019-01-05T11:35:57.979Z,102157.88
2019-01-05T11:38:51.870Z,102160.95
2019-01-05T11:42:02.632Z,102159.25
2019-01-05T11:44:48.966Z,102158.03
2019-01-05T11:48:07.166Z,102159.65
2019-01-05T11:51:02.819Z,102160.41
2019-01-05T11:54:02.875Z,102152.88
2019-01-05T11:56:42.974Z,102148.09
2019-01-05T11:59:51.926Z,102144.35
2019-01-05T12:02:47.426Z,102152.07
2019-01-05T12:06:06.412Z,102156.36
2019-01-05T12:09:07.819Z,102162.91
2019-01-05T12:11:59.136Z,102160.05
2019-01-05T12:15:03.577Z,102171.97
2019-01-05T12:18:08.063Z,102154.11
2019-01-05T12:21:14.740Z,102155.17
2019-01-05T12:24:14.667Z,102153.63
2019-01-05T12:26:58.045Z,102159.59
2019-01-05T12:29:47.199Z,102166.38
2019-01-05T12:32:57.676Z,102163.26
2019-01-05T12:36:05.961Z,102165.61
2019-01-05T12:39:12.035Z,102165.61
2019-01-05T12:42:07.203Z,102170.22
2019-01-05T12:45:11.568Z,102171.84
2019-01-05T12:47:57.730Z,102174.38
2019-01-05T12:51:20.096Z,102175.72
2019-01-05T12:53:59.865Z,102185.92
2019-01-05T12:56:55.141Z,102188.98
2019-01-05T12:59:44.260Z,102188.64
2019-01-05T13:02:50.023Z,102193.52
2019-01-05T13:05:39.174Z,102197.40
2019-01-05T13:08:46.905Z,102202.59
2019-01-05T13:11:57.238Z,102205.84
2019-01-05T13:14:54.047Z,102202.68
2019-01-05T13:17:54.004Z,102207.20
2019-01-05T13:20:54.328Z,102213.98
2019-01-05T13:24:00.590Z,102223.73
2019-01-05T13:26:55.476Z,102231.59
2019-01-05T13:30:00.752Z,102244.83
2019-01-05T13:32:51.780Z,102248.48
2019-01-05T13:35:45.780Z,102249.48
2019-01-05T13:38:56.835Z,102247.98
2019-01-05T13:42:01.115Z,102250.29
2019-01-05T13:44:56.690Z,102250.78
2019-01-05T13:48:02.339Z,102250.97
2019-01-05T13:50:58.751Z,102259.36
2019-01-05T13:53:48.113Z,102256.87
2019-01-05T13:56:21.878Z,102268.44
2019-01-05T13:59:05.510Z,102266.09
2019-01-05T14:01:36.694Z,102269.47
2019-01-05T14:04:16.757Z,102271.12
2019-01-05T14:07:04.140Z,102274.00
2019-01-05T14:09:51.787Z,102267.69
2019-01-05T14:12:29.343Z,102269.37
2019-01-05T14:15:16.851Z,102263.13
2019-01-05T14:18:04.453Z,102259.30
2019-01-05T14:20:44.264Z,102260.37
2019-01-05T14:23:31.868Z,102258.33
2019-01-05T14:26:09.223Z,102257.20
2019-01-05T14:28:40.511Z,102268.66
2019-01-05T14:31:27.561Z,102268.98
2019-01-05T14:33:58.779Z,102280.71
2019-01-05T14:36:49.128Z,102276.67
2019-01-05T14:39:20.380Z,102271.52
2019-01-05T14:41:54.639Z,102272.66
2019-01-05T14:44:25.889Z,102281.08
2019-01-05T14:46:57.170Z,102280.91
2019-01-05T14:49:31.321Z,102284.77
2019-01-05T14:52:14.501Z,102287.34
2019-01-05T14:54:57.695Z,102284.95
2019-01-05T14:57:34.856Z,102287.66
2019-01-05T15:00:23.618Z,102297.70
2019-01-05T15:03:01.196Z,102295.77
2019-01-05T15:05:48.983Z,102305.34
2019-01-05T15:08:35.477Z,102305.00
2019-01-05T15:11:18.595Z,102321.05
2019-01-05T15:13:59.164Z,102319.73
2019-01-05T15:16:45.776Z,102326.16
2019-01-05T15:19:33.133Z,102320.90
2019-01-05T15:22:04.467Z,102319.09
2019-01-05T15:24:51.747Z,102320.72
2019-01-05T15:27:26.278Z,102322.77
2019-01-05T15:30:00.648Z,102328.22
2019-01-05T15:32:48.142Z,102328.81
2019-01-05T15:35:35.675Z,102328.59
2019-01-05T15:38:06.911Z,102335.45
2019-01-05T15:40:38.249Z,102340.23
2019-01-05T15:43:24.810Z,102350.53
2019-01-05T15:46:05.010Z,102339.63
2019-01-05T15:48:36.451Z,102353.73
2019-01-05T15:51:23.854Z,102355.42
2019-01-05T15:54:01.232Z,102349.50
2019-01-05T15:56:41.544Z,102352.61
2019-01-05T15:59:28.784Z,102359.25
2019-01-05T16:02:12.359Z,102362.17
2019-01-05T16:04:59.908Z,102363.00
2019-01-05T16:07:34.060Z,102368.24
2019-01-05T16:10:21.703Z,102369.89
2019-01-05T16:13:05.107Z,102364.55
2019-01-05T16:15:52.980Z,102357.70
2019-01-05T16:18:41.046Z,102361.01
2019-01-05T16:21:24.200Z,102357.12
2019-01-05T16:23:55.575Z,102359.58
2019-01-05T16:26:32.663Z,102355.33
2019-01-05T16:29:12.706Z,102354.13
2019-01-05T16:31:46.865Z,102366.12
2019-01-05T16:34:21.141Z,102363.31
2019-01-05T16:37:10.463Z,102360.83
2019-01-05T16:39:47.503Z,102366.75
2019-01-05T16:42:21.499Z,102366.41
2019-01-05T16:44:52.890Z,102371.91
2019-01-05T16:47:26.750Z,102366.64
2019-01-05T16:49:58.045Z,102365.56
2019-01-05T16:52:44.415Z,102370.08
2019-01-05T16:55:30.710Z,102369.42
2019-01-05T16:58:04.947Z,102369.25
2019-01-05T17:00:39.440Z,102375.55
2019-01-05T17:03:16.545Z,102375.37
2019-01-05T17:06:03.995Z,102380.78
2019-01-05T17:08:50.397Z,102377.62
2019-01-05T17:11:38.091Z,102380.98
2019-01-05T17:14:25.637Z,102386.08
2019-01-05T17:17:05.946Z,102389.61
2019-01-05T17:19:37.222Z,102387.53
2019-01-05T17:22:28.290Z,102393.58
2019-01-05T17:25:15.791Z,102395.42
2019-01-05T17:27:55.710Z,102389.95
2019-01-05T17:30:43.110Z,102387.30
2019-01-05T17:33:14.444Z,102391.06
2019-01-05T17:35:51.612Z,102390.36
2019-01-05T17:38:38.017Z,102386.58
2019-01-05T17:41:12.049Z,102382.15
2019-01-05T17:43:43.373Z,102385.44
2019-01-05T17:46:23.368Z,102394.08
2019-01-05T17:49:01.710Z,102395.28
2019-01-05T17:51:49.005Z,102404.34
2019-01-05T17:54:38.663Z,102402.73
2019-01-05T17:57:09.929Z,102404.20
2019-01-05T17:59:41.320Z,102405.30
2019-01-05T18:02:18.574Z,102410.95
2019-01-05T18:04:55.443Z,102409.57
2019-01-05T18:07:26.780Z,102403.88
2019-01-05T18:10:14.467Z,102405.41
2019-01-05T18:12:48.714Z,102406.17
2019-01-05T18:15:20.045Z,102410.75
2019-01-05T18:17:51.371Z,102410.94
2019-01-05T18:20:34.103Z,102417.59
2019-01-05T18:23:20.697Z,102413.24
2019-01-05T18:25:52.159Z,102416.45
2019-01-05T18:28:29.195Z,102420.67
2019-01-05T18:31:15.813Z,102411.30
2019-01-05T18:34:02.874Z,102414.20
2019-01-05T18:36:46.170Z,102423.27
2019-01-05T18:39:24.003Z,102434.92
2019-01-05T18:42:15.193Z,102434.92
2019-01-05T18:44:46.847Z,102445.52
2019-01-05T18:47:25.018Z,102443.27
2019-01-05T18:50:05.451Z,102441.39
2019-01-05T18:52:53.319Z,102439.67
2019-01-05T18:55:27.947Z,102441.44
2019-01-05T18:58:14.163Z,102434.76
2019-01-05T19:00:59.182Z,102443.71
2019-01-05T19:03:30.909Z,102443.61
2019-01-05T19:06:05.357Z,102445.64
2019-01-05T19:08:36.790Z,102443.45
2019-01-05T19:11:11.298Z,102440.00
2019-01-05T19:13:50.379Z,102437.22
2019-01-05T19:16:33.901Z,102434.19
2019-01-05T19:19:23.843Z,102436.98
2019-01-05T19:22:10.352Z,102444.83
2019-01-05T19:24:41.925Z,102453.47
2019-01-05T19:27:16.229Z,102458.53
2019-01-05T19:29:59.620Z,102457.92
2019-01-05T19:32:40.158Z,102463.47
2019-01-05T19:35:17.447Z,102469.21
2019-01-05T20:20:13.133Z,102477.05
2019-01-05T20:22:56.778Z,102480.61
2019-01-05T20:25:50.181Z,102481.09
2019-01-05T20:28:30.355Z,102478.89
2019-01-05T20:34:31.646Z,102483.48
2019-01-05T20:37:15.916Z,102485.84
2019-01-05T20:40:28.195Z,102493.03
2019-01-05T20:43:00.297Z,102486.91
2019-01-05T20:45:39.439Z,102490.40
2019-01-05T20:49:18.359Z,102500.70
2019-01-05T20:51:39.706Z,102504.25
2019-01-05T20:54:31.059Z,102511.34
2019-01-05T20:57:26.029Z,102512.30
2019-01-05T21:00:22.531Z,102512.43
2019-01-05T21:03:16.760Z,102517.53
2019-01-05T21:06:21.682Z,102519.91
2019-01-05T21:08:49.213Z,102518.56
2019-01-05T21:11:36.736Z,102516.31
2019-01-05T21:14:41.417Z,102511.86
2019-01-05T21:17:32.352Z,102507.02
2019-01-05T21:20:41.888Z,102510.71
2019-01-05T21:23:46.335Z,102514.42
2019-01-05T21:26:56.455Z,102521.63
2019-01-05T21:30:05.780Z,102514.48
2019-01-05T21:33:01.728Z,102521.27
2019-01-05T21:36:06.738Z,102517.20
2019-01-05T21:38:52.475Z,102517.23
2019-01-05T21:41:45.172Z,102517.71
2019-01-05T21:48:06.673Z,102525.31
2019-01-05T21:51:07.875Z,102530.81
2019-01-05T21:54:44.787Z,102532.22
2019-01-05T22:00:04.375Z,102531.90
2019-01-05T22:06:00.057Z,102543.08
2019-01-05T22:08:42.301Z,102534.67
2019-01-05T22:11:39.500Z,102540.02
2019-01-05T22:14:49.810Z,102547.21
2019-01-05T22:18:02.686Z,102538.77
2019-01-05T22:21:03.035Z,102540.13
2019-01-05T22:24:01.292Z,102546.86
2019-01-05T22:28:24.304Z,102551.34
2019-01-05T22:29:50.643Z,102540.70
2019-01-05T22:32:40.969Z,102536.22
2019-01-05T22:35:50.968Z,102542.52
2019-01-05T22:38:40.495Z,102542.86
2019-01-05T22:41:58.673Z,102551.36
2019-01-05T22:44:44.477Z,102552.19
2019-01-05T22:47:28.057Z,102549.56
2019-01-05T22:50:22.349Z,102546.47
2019-01-05T22:53:19.094Z,102549.66
2019-01-05T22:55:57.992Z,102548.22
2019-01-05T22:58:59.049Z,102551.70
2019-01-05T23:01:54.359Z,102560.00
2019-01-05T23:04:53.663Z,102564.94
2019-01-05T23:07:53.383Z,102565.00
2019-01-05T23:10:49.652Z,102568.44
2019-01-05T23:14:10.792Z,102574.66
2019-01-05T23:19:36.216Z,102559.69
2019-01-05T23:22:25.595Z,102550.67
2019-01-05T23:35:17.320Z,102554.66
2019-01-05T23:38:50.605Z,102552.84
2019-01-05T23:58:12.168Z,102558.87
